EHKD/DHR METAR and TAF weather

Enter ICAO airport designator
Station Type Date Time Source
EHKD METAR 2019/04/25 02:25 UTC NOAA

EHKD 250225Z AUTO 17010KT 9999 NCD 10/09 Q1003 BLU


Station Type Date Time Source
EHKD Decoded METAR 2019/04/25 02:25 UTC NOAA

De Kooy, Netherlands (EHKD) 52-55N 004-47E 14M
Apr 24, 2019 - 10:25 PM EDT / 2019.04.25 0225 UTC
Wind: from the S (170 degrees) at 12 MPH (10 KT):0
Visibility: greater than 7 mile(s):0
Temperature: 50 F (10 C)
Dew Point: 48 F (9 C)
Relative Humidity: 93%
Pressure (altimeter): 29.62 in. Hg (1003 hPa)
ob: EHKD 250225Z AUTO 17010KT 9999 NCD 10/09 Q1003 BLU
cycle: 2

Station Type Date Time Source
EHKD TAF 2019/04/25 01:24 UTC NOAA

TAF TAF EHKD 250024Z 2501/2513 17010KT 9999 FEW012
TEMPO 2501/2503 FEW007 SCT012 SCT050CB
BECMG 2506/2508 15012G22KT

Example: see airport list